Time;durP1;ratioP1;P1;durP2;ratioP2;P2;SDS_P1;SDS_P2;PMS_P1;PMS_P2;Temp;Humidity;BMP_temperature;BMP_pressure;BME280_temperature;BME280_humidity;BME280_pressure;Samples;Min_cycle;Max_cycle;Signal;HPM_P1;HPM_P2
2023/04/19 00:01:03;;;;;;;2.33;2.10;;;18.20;66.00;;;;;;5072667;27;48598;-72
2023/04/19 00:03:30;;;;;;;2.22;1.98;;;18.20;65.90;;;;;;5050492;27;45586;-71
2023/04/19 00:05:58;;;;;;;2.75;2.10;;;18.20;65.90;;;;;;5050792;27;45331;-71
2023/04/19 00:08:26;;;;;;;2.22;1.80;;;18.20;66.00;;;;;;5054967;27;45505;-71
2023/04/19 00:10:53;;;;;;;2.17;1.73;;;18.20;66.00;;;;;;5039072;27;48144;-71
2023/04/19 00:13:20;;;;;;;2.50;1.90;;;18.20;65.90;;;;;;5038955;27;45295;-71
2023/04/19 00:15:47;;;;;;;2.78;1.95;;;18.20;65.70;;;;;;5042647;28;45323;-71
2023/04/19 00:18:14;;;;;;;2.67;2.00;;;18.20;65.80;;;;;;5035930;27;45366;-71
2023/04/19 00:20:41;;;;;;;2.47;2.20;;;18.20;65.80;;;;;;5046436;27;46580;-71
2023/04/19 00:23:08;;;;;;;2.63;2.00;;;18.20;65.60;;;;;;5039731;27;45374;-72
2023/04/19 00:25:36;;;;;;;3.10;2.30;;;18.20;65.70;;;;;;5044511;27;45617;-72
2023/04/19 00:28:04;;;;;;;3.65;2.40;;;18.20;65.70;;;;;;5033104;27;45423;-72
2023/04/19 00:30:31;;;;;;;3.10;2.05;;;18.20;65.60;;;;;;5039774;28;46672;-71
2023/04/19 00:32:57;;;;;;;2.53;2.28;;;18.20;65.50;;;;;;5040869;27;45228;-73
2023/04/19 00:35:24;;;;;;;2.38;2.17;;;18.20;65.60;;;;;;5039819;27;45556;-72
2023/04/19 00:37:51;;;;;;;2.50;2.13;;;18.20;65.80;;;;;;5057961;27;45477;-73
2023/04/19 00:40:18;;;;;;;2.90;2.60;;;18.20;65.70;;;;;;5048939;27;48330;-73
2023/04/19 00:42:46;;;;;;;3.60;2.55;;;18.20;65.70;;;;;;5032800;28;45261;-72
2023/04/19 00:45:13;;;;;;;3.78;2.42;;;18.20;65.60;;;;;;5053862;27;45260;-72
2023/04/19 00:47:40;;;;;;;3.55;2.55;;;18.20;65.70;;;;;;5068393;27;45661;-71
2023/04/19 00:50:08;;;;;;;3.08;2.38;;;18.20;65.60;;;;;;5050946;27;45455;-72
2023/04/19 00:52:35;;;;;;;2.55;2.20;;;18.20;65.80;;;;;;5044054;27;45383;-72
2023/04/19 00:55:02;;;;;;;2.58;2.00;;;18.20;65.70;;;;;;5041873;27;45403;-72
2023/04/19 00:57:30;;;;;;;2.38;2.13;;;18.20;65.70;;;;;;5066296;27;45505;-71
2023/04/19 00:59:58;;;;;;;2.65;2.33;;;18.20;65.70;;;;;;5054174;27;46667;-72
2023/04/19 01:02:27;;;;;;;3.45;2.60;;;18.20;65.40;;;;;;5053216;27;45315;-71
2023/04/19 01:04:54;;;;;;;2.78;2.20;;;18.20;66.50;;;;;;5049157;27;45438;-72
2023/04/19 01:07:20;;;;;;;2.20;2.00;;;18.20;65.40;;;;;;5046975;27;45629;-72
2023/04/19 01:09:47;;;;;;;3.88;2.00;;;18.20;65.40;;;;;;5040699;27;47335;-72
2023/04/19 01:12:14;;;;;;;2.70;2.33;;;18.20;65.40;;;;;;5042623;28;45339;-72
2023/04/19 01:14:41;;;;;;;2.78;2.20;;;18.20;65.30;;;;;;5099775;27;45334;-71
2023/04/19 01:17:09;;;;;;;2.67;2.17;;;18.20;65.40;;;;;;5071406;27;45213;-72
2023/04/19 01:19:37;;;;;;;2.53;2.13;;;18.20;65.20;;;;;;5077843;27;45561;-71
2023/04/19 01:22:05;;;;;;;3.05;2.13;;;18.20;65.30;;;;;;5067095;27;45460;-72
2023/04/19 01:24:33;;;;;;;2.67;2.10;;;18.20;65.20;;;;;;5042773;27;45443;-71
2023/04/19 01:27:01;;;;;;;4.55;2.42;;;18.20;65.40;;;;;;5060006;27;45540;-72
2023/04/19 01:29:27;;;;;;;3.38;2.33;;;18.20;65.40;;;;;;5043510;27;46640;-72
2023/04/19 01:31:54;;;;;;;2.85;2.20;;;18.20;65.30;;;;;;5048132;27;45818;-72
2023/04/19 01:34:22;;;;;;;2.53;2.22;;;18.20;65.40;;;;;;5047101;27;45361;-72
2023/04/19 01:36:49;;;;;;;4.97;2.30;;;18.20;65.20;;;;;;5061512;27;45355;-72
2023/04/19 01:39:16;;;;;;;2.85;2.40;;;18.20;65.20;;;;;;5082278;27;48117;-72
2023/04/19 01:41:44;;;;;;;3.53;2.30;;;18.20;65.10;;;;;;5050631;27;45704;-72
2023/04/19 01:44:12;;;;;;;2.50;2.00;;;18.20;65.10;;;;;;5041832;27;45466;-72
2023/04/19 01:46:41;;;;;;;3.20;2.33;;;18.20;65.10;;;;;;5057782;27;45544;-72
2023/04/19 01:49:08;;;;;;;2.40;2.10;;;18.20;65.00;;;;;;5047016;27;46619;-71
2023/04/19 01:51:35;;;;;;;2.33;2.00;;;18.20;65.00;;;;;;5055747;27;45391;-71
2023/04/19 01:54:01;;;;;;;2.92;2.22;;;18.20;65.10;;;;;;5058742;27;45353;-71
2023/04/19 01:56:28;;;;;;;3.00;2.28;;;18.20;65.10;;;;;;5041260;27;45361;-72
2023/04/19 01:58:56;;;;;;;3.58;2.28;;;18.20;65.00;;;;;;5064309;27;46583;-72
2023/04/19 02:01:23;;;;;;;2.97;2.30;;;18.20;65.00;;;;;;5093988;27;45622;-72
2023/04/19 02:03:50;;;;;;;3.22;2.55;;;18.20;65.00;;;;;;5068654;27;45518;-72
2023/04/19 02:06:17;;;;;;;2.20;2.00;;;18.20;65.00;;;;;;5063200;27;45430;-72
2023/04/19 02:08:44;;;;;;;3.40;2.40;;;18.20;65.00;;;;;;5061642;27;47641;-72
2023/04/19 02:11:13;;;;;;;3.08;2.05;;;18.20;65.20;;;;;;5057278;27;45448;-72
2023/04/19 02:13:40;;;;;;;2.25;1.80;;;18.20;65.10;;;;;;5038400;27;45333;-71
2023/04/19 02:16:10;;;;;;;3.03;2.17;;;18.20;65.30;;;;;;5039222;28;45322;-71
2023/04/19 02:18:38;;;;;;;2.53;2.10;;;18.20;65.40;;;;;;5054556;27;47314;-72
2023/04/19 02:21:06;;;;;;;3.42;2.42;;;18.20;65.30;;;;;;5038922;28;45303;-72
2023/04/19 02:23:33;;;;;;;3.15;2.28;;;18.20;65.40;;;;;;5033492;28;45265;-71
2023/04/19 02:26:02;;;;;;;3.65;2.45;;;18.20;65.30;;;;;;5038328;28;45597;-72
2023/04/19 02:28:29;;;;;;;3.33;2.10;;;18.20;65.20;;;;;;5038180;27;47245;-72
2023/04/19 02:30:55;;;;;;;2.85;2.30;;;18.20;65.10;;;;;;5056039;27;45281;-71
2023/04/19 02:33:25;;;;;;;2.78;2.28;;;18.20;65.10;;;;;;5048853;27;45296;-71
2023/04/19 02:35:52;;;;;;;2.78;2.10;;;18.20;64.90;;;;;;5038526;27;45568;-72
2023/04/19 02:38:19;;;;;;;3.20;2.35;;;18.20;65.10;;;;;;5039915;27;47489;-71
2023/04/19 02:40:46;;;;;;;3.95;2.50;;;18.20;65.10;;;;;;5058205;27;45576;-71
2023/04/19 02:43:12;;;;;;;3.85;2.50;;;18.20;65.00;;;;;;5102438;27;45418;-71
2023/04/19 02:45:39;;;;;;;3.03;2.38;;;18.20;65.00;;;;;;5039881;27;45399;-72
2023/04/19 02:48:06;;;;;;;3.15;2.45;;;18.20;66.00;;;;;;5055770;27;47511;-71
2023/04/19 02:50:37;;;;;;;5.22;2.25;;;18.20;66.00;;;;;;5054898;27;45322;-71
2023/04/19 02:53:04;;;;;;;2.90;2.00;;;18.20;65.00;;;;;;5065175;27;45393;-71
2023/04/19 02:55:31;;;;;;;3.33;2.70;;;18.20;65.10;;;;;;5048399;27;45430;-71
2023/04/19 02:57:57;;;;;;;3.55;2.47;;;18.20;65.00;;;;;;5060572;27;46513;-72
2023/04/19 03:00:24;;;;;;;2.80;2.03;;;18.20;65.20;;;;;;5041010;28;45366;-71
2023/04/19 03:02:51;;;;;;;3.28;2.40;;;18.20;65.20;;;;;;5043793;27;45513;-72
2023/04/19 03:05:18;;;;;;;4.00;1.98;;;18.20;65.40;;;;;;5043430;27;45504;-71
2023/04/19 03:07:46;;;;;;;2.88;1.95;;;18.20;65.30;;;;;;5058060;27;48392;-71
2023/04/19 03:10:12;;;;;;;3.63;2.40;;;18.20;65.40;;;;;;5055687;27;45455;-71
2023/04/19 03:12:39;;;;;;;6.45;2.58;;;18.20;65.30;;;;;;5066886;27;45413;-71
2023/04/19 03:15:07;;;;;;;2.80;1.90;;;18.20;65.30;;;;;;5059230;27;45403;-72
2023/04/19 03:17:34;;;;;;;2.97;2.00;;;18.20;65.30;;;;;;5064519;27;46600;-71
2023/04/19 03:20:01;;;;;;;2.67;2.25;;;18.20;65.20;;;;;;5078127;27;46047;-72
2023/04/19 03:22:28;;;;;;;7.28;2.40;;;18.20;66.30;;;;;;5047684;27;45457;-71
2023/04/19 03:24:56;;;;;;;3.60;2.00;;;18.20;65.20;;;;;;5039662;27;45458;-72
2023/04/19 03:27:23;;;;;;;2.80;2.22;;;18.20;65.20;;;;;;5044410;27;46623;-72
2023/04/19 03:29:49;;;;;;;3.53;2.40;;;18.20;65.10;;;;;;5043149;27;45940;-71
2023/04/19 03:32:16;;;;;;;2.90;2.10;;;18.20;65.20;;;;;;5047034;28;45516;-71
2023/04/19 03:34:43;;;;;;;3.05;2.22;;;18.20;65.10;;;;;;5040555;28;45540;-71
2023/04/19 03:37:10;;;;;;;2.83;2.30;;;18.20;65.10;;;;;;5084618;27;45428;-71
2023/04/19 03:39:37;;;;;;;2.72;1.90;;;18.20;65.10;;;;;;5091529;27;45760;-72
2023/04/19 03:42:05;;;;;;;2.83;1.95;;;18.20;65.10;;;;;;5053904;27;45276;-71
2023/04/19 03:44:32;;;;;;;3.28;2.10;;;18.20;66.40;;;;;;5046779;27;45561;-71
2023/04/19 03:46:59;;;;;;;2.67;2.15;;;18.20;65.50;;;;;;5049624;27;48772;-71
2023/04/19 03:49:26;;;;;;;2.47;1.95;;;18.20;65.50;;;;;;5052315;27;45454;-71
2023/04/19 03:51:52;;;;;;;2.58;2.03;;;18.20;65.60;;;;;;5085428;27;45330;-71
2023/04/19 03:54:19;;;;;;;2.85;2.13;;;18.20;65.40;;;;;;5049734;27;45342;-71
2023/04/19 03:56:46;;;;;;;2.85;2.00;;;18.20;65.40;;;;;;5084020;27;45413;-71
2023/04/19 03:59:14;;;;;;;3.78;1.98;;;18.20;65.40;;;;;;5050306;27;45305;-72
2023/04/19 04:01:41;;;;;;;2.78;2.38;;;18.20;65.40;;;;;;5083722;27;45430;-72
2023/04/19 04:04:08;;;;;;;2.92;2.20;;;18.20;65.30;;;;;;5048216;27;45605;-71
2023/04/19 04:06:35;;;;;;;3.63;2.13;;;18.20;65.20;;;;;;5067648;27;45508;-71
2023/04/19 04:09:02;;;;;;;3.30;2.35;;;18.20;65.20;;;;;;5062590;27;45451;-72
2023/04/19 04:11:29;;;;;;;3.20;2.30;;;18.20;65.00;;;;;;5084593;27;45560;-71
2023/04/19 04:13:56;;;;;;;2.65;1.98;;;18.20;65.10;;;;;;5042860;27;45343;-71
2023/04/19 04:16:24;;;;;;;3.33;2.20;;;18.20;64.90;;;;;;5060851;27;47185;-71
2023/04/19 04:18:51;;;;;;;3.03;2.50;;;18.20;64.90;;;;;;5063944;27;45396;-71
2023/04/19 04:21:18;;;;;;;2.92;2.30;;;18.20;64.70;;;;;;5051547;27;45324;-71
2023/04/19 04:23:46;;;;;;;2.83;2.10;;;18.20;64.80;;;;;;5045068;27;45567;-72
2023/04/19 04:26:12;;;;;;;2.42;2.00;;;18.20;64.80;;;;;;5039866;28;46548;-71
2023/04/19 04:28:39;;;;;;;3.17;2.20;;;18.20;64.90;;;;;;5065734;27;45402;-71
2023/04/19 04:31:06;;;;;;;2.50;2.03;;;18.20;65.10;;;;;;5040972;27;45487;-71
2023/04/19 04:33:34;;;;;;;2.97;2.03;;;18.20;65.20;;;;;;5039747;27;45676;-71
2023/04/19 04:36:01;;;;;;;2.70;2.22;;;18.20;65.20;;;;;;5038303;27;46560;-71
2023/04/19 04:38:28;;;;;;;2.47;1.92;;;18.20;65.20;;;;;;5038757;27;45432;-71
2023/04/19 04:40:56;;;;;;;3.80;1.95;;;18.20;65.10;;;;;;5060630;27;45357;-71
2023/04/19 04:43:24;;;;;;;2.28;1.95;;;18.20;65.20;;;;;;5039994;27;45289;-71
2023/04/19 04:45:54;;;;;;;2.25;2.05;;;18.20;65.00;;;;;;5035030;27;46580;-72
2023/04/19 04:48:21;;;;;;;3.47;2.10;;;18.20;65.00;;;;;;5037584;27;45398;-71
2023/04/19 04:50:49;;;;;;;2.55;2.03;;;18.20;65.00;;;;;;5054254;27;45540;-71
2023/04/19 04:53:16;;;;;;;3.42;2.15;;;18.20;64.90;;;;;;5080556;27;45459;-71
2023/04/19 04:55:42;;;;;;;2.65;2.10;;;18.20;64.90;;;;;;5040180;28;46254;-71
2023/04/19 04:58:09;;;;;;;3.78;2.38;;;18.20;64.70;;;;;;5081287;27;45289;-72
2023/04/19 05:00:36;;;;;;;3.08;2.05;;;18.20;64.80;;;;;;5069869;27;45397;-72
2023/04/19 05:03:03;;;;;;;2.63;2.00;;;18.20;64.80;;;;;;5072033;27;45418;-71
2023/04/19 05:05:30;;;;;;;3.58;2.20;;;18.20;65.70;;;;;;5041134;27;46862;-71
2023/04/19 05:07:58;;;;;;;2.38;1.80;;;18.20;64.60;;;;;;5040847;27;45289;-72
2023/04/19 05:10:24;;;;;;;2.58;1.80;;;18.20;64.90;;;;;;5065419;27;45338;-71
2023/04/19 05:12:51;;;;;;;2.17;1.90;;;18.20;64.40;;;;;;5037370;27;45528;-71
2023/04/19 05:15:18;;;;;;;2.60;1.90;;;18.20;64.70;;;;;;5065720;27;45505;-72
2023/04/19 05:17:45;;;;;;;2.60;1.90;;;18.10;64.60;;;;;;5068291;27;45325;-71
2023/04/19 05:20:12;;;;;;;2.92;1.80;;;18.20;64.90;;;;;;5066726;27;45546;-71
2023/04/19 05:22:39;;;;;;;2.60;1.77;;;18.20;65.00;;;;;;5076913;27;45398;-71
2023/04/19 05:25:09;;;;;;;2.65;1.70;;;18.20;64.90;;;;;;5056057;27;47373;-71
2023/04/19 05:27:36;;;;;;;1.92;1.73;;;18.20;64.80;;;;;;5084268;27;45409;-72
2023/04/19 05:30:03;;;;;;;4.70;1.50;;;18.20;64.70;;;;;;5099884;27;45523;-71
2023/04/19 05:32:30;;;;;;;4.85;1.60;;;18.20;64.90;;;;;;5044986;27;45299;-73
2023/04/19 05:34:57;;;;;;;2.95;1.58;;;18.20;64.80;;;;;;5046523;27;47990;-73
2023/04/19 05:37:24;;;;;;;2.35;1.52;;;18.20;64.70;;;;;;5082287;27;45726;-72
2023/04/19 05:39:51;;;;;;;2.47;1.80;;;18.20;64.60;;;;;;5041858;27;45502;-72
2023/04/19 05:42:19;;;;;;;2.67;1.67;;;18.20;64.70;;;;;;5041917;27;45295;-72
2023/04/19 05:44:46;;;;;;;1.77;1.48;;;18.10;64.60;;;;;;5077257;27;47349;-71
2023/04/19 05:47:12;;;;;;;1.65;1.48;;;18.20;64.60;;;;;;5055436;27;45388;-72
2023/04/19 05:49:39;;;;;;;1.52;1.33;;;18.20;64.60;;;;;;5043155;27;45349;-72
2023/04/19 05:52:06;;;;;;;2.47;1.80;;;18.20;64.60;;;;;;5065813;27;45271;-73
2023/04/19 05:54:34;;;;;;;1.83;1.55;;;18.10;64.10;;;;;;5065738;27;47523;-73
2023/04/19 05:57:01;;;;;;;2.17;1.70;;;18.10;64.00;;;;;;5039867;27;45430;-73
2023/04/19 05:59:30;;;;;;;2.25;1.70;;;18.10;64.00;;;;;;5044505;27;45464;-72
2023/04/19 06:01:56;;;;;;;1.77;1.50;;;18.10;64.00;;;;;;5093372;27;45654;-72
2023/04/19 06:04:23;;;;;;;1.80;1.35;;;18.10;64.10;;;;;;5065030;27;45450;-72
2023/04/19 06:06:50;;;;;;;2.50;1.60;;;18.10;63.80;;;;;;5082730;27;45297;-72
2023/04/19 06:09:18;;;;;;;2.45;1.60;;;18.10;63.10;;;;;;5077148;27;45362;-72
2023/04/19 06:11:45;;;;;;;2.00;1.52;;;18.10;63.30;;;;;;5039483;27;45393;-72
2023/04/19 06:14:12;;;;;;;1.80;1.52;;;18.10;63.20;;;;;;5072595;27;46430;-74
2023/04/19 06:16:40;;;;;;;2.03;1.50;;;18.10;63.00;;;;;;5031721;27;45357;-73
2023/04/19 06:19:07;;;;;;;2.30;1.42;;;18.10;62.70;;;;;;5058569;27;45389;-73
2023/04/19 06:21:34;;;;;;;2.65;1.60;;;18.10;62.40;;;;;;5055968;27;45459;-73
2023/04/19 06:24:01;;;;;;;1.77;1.48;;;18.10;62.40;;;;;;5056617;27;45476;-72
2023/04/19 06:26:28;;;;;;;3.17;1.60;;;18.00;62.10;;;;;;5037832;27;45398;-72
2023/04/19 06:28:54;;;;;;;2.70;1.65;;;18.00;62.00;;;;;;5035244;28;45381;-72
2023/04/19 06:31:21;;;;;;;2.60;1.60;;;18.00;61.90;;;;;;5037481;28;45284;-72
2023/04/19 06:33:49;;;;;;;2.40;1.58;;;18.00;61.60;;;;;;5088232;27;47968;-74
2023/04/19 06:36:16;;;;;;;2.25;1.75;;;18.00;61.90;;;;;;5058306;27;45440;-73
2023/04/19 06:38:45;;;;;;;3.08;1.88;;;18.00;61.70;;;;;;5058419;27;45548;-73
2023/04/19 06:41:12;;;;;;;2.72;1.60;;;18.00;61.40;;;;;;5042731;27;45349;-75
2023/04/19 06:43:39;;;;;;;2.15;1.55;;;18.00;60.90;;;;;;5063523;27;45417;-73
2023/04/19 06:46:06;;;;;;;1.65;1.52;;;18.00;61.00;;;;;;5040807;28;45437;-73
2023/04/19 06:48:34;;;;;;;2.28;1.65;;;18.10;61.50;;;;;;5060762;27;45445;-73
2023/04/19 06:51:02;;;;;;;2.03;1.45;;;18.10;61.60;;;;;;5083272;27;45436;-72
2023/04/19 06:53:29;;;;;;;2.22;1.63;;;18.10;61.90;;;;;;5053160;27;47614;-73
2023/04/19 06:55:59;;;;;;;3.15;1.50;;;18.10;61.90;;;;;;5047380;28;45465;-73
2023/04/19 06:58:26;;;;;;;1.98;1.27;;;18.20;61.90;;;;;;5082164;27;45344;-73
2023/04/19 07:00:53;;;;;;;2.72;1.60;;;18.20;62.00;;;;;;5044214;27;45360;-73
2023/04/19 07:03:20;;;;;;;1.20;1.10;;;18.20;62.40;;;;;;5050689;27;46229;-72
2023/04/19 07:05:47;;;;;;;2.13;1.35;;;18.20;62.40;;;;;;5062596;27;45417;-72
2023/04/19 07:08:15;;;;;;;2.53;1.60;;;18.20;62.40;;;;;;5041449;27;45237;-73
2023/04/19 07:10:42;;;;;;;2.20;1.30;;;18.20;62.50;;;;;;5045166;27;45407;-69
2023/04/19 07:13:10;;;;;;;12.40;2.03;;;18.20;62.40;;;;;;5061163;27;46545;-73
2023/04/19 07:15:37;;;;;;;5.88;1.35;;;18.20;64.00;;;;;;5044030;27;45316;-73
2023/04/19 07:18:04;;;;;;;2.13;1.30;;;18.30;64.30;;;;;;5053666;27;45432;-72
2023/04/19 07:20:31;;;;;;;1.88;1.10;;;18.30;64.30;;;;;;5043198;28;45431;-72
2023/04/19 07:22:58;;;;;;;1.80;1.27;;;18.40;64.20;;;;;;5059925;27;46494;-73
2023/04/19 07:25:26;;;;;;;3.83;1.30;;;18.40;63.80;;;;;;5043206;28;45252;-73
2023/04/19 07:27:53;;;;;;;3.08;1.10;;;18.40;63.60;;;;;;5067043;27;45389;-73
2023/04/19 07:30:20;;;;;;;1.55;1.40;;;18.40;63.80;;;;;;5053862;27;45401;-73
2023/04/19 07:32:49;;;;;;;5.00;1.30;;;18.40;63.90;;;;;;5040582;27;45235;-72
2023/04/19 07:35:16;;;;;;;2.97;2.03;;;18.50;63.90;;;;;;5042583;28;45271;-72
2023/04/19 07:37:43;;;;;;;1.95;1.38;;;18.50;63.90;;;;;;5042448;28;45248;-73
2023/04/19 07:40:11;;;;;;;1.90;1.30;;;18.50;63.90;;;;;;5043188;27;45790;-72
2023/04/19 07:42:39;;;;;;;1.98;1.40;;;18.40;63.80;;;;;;5034560;28;46556;-73
2023/04/19 07:45:07;;;;;;;4.57;1.27;;;18.50;63.80;;;;;;5042959;28;45411;-73
2023/04/19 07:47:34;;;;;;;1.58;1.27;;;18.50;63.90;;;;;;5044249;28;45218;-73
2023/04/19 07:50:01;;;;;;;1.50;1.05;;;18.50;63.80;;;;;;5042862;28;45393;-72
2023/04/19 07:52:28;;;;;;;2.08;1.40;;;18.50;63.80;;;;;;5074633;27;46320;-73
2023/04/19 07:54:55;;;;;;;2.13;1.20;;;18.50;63.60;;;;;;5036246;28;45634;-72
2023/04/19 07:57:22;;;;;;;2.08;1.23;;;18.50;63.70;;;;;;5045559;27;45459;-72
2023/04/19 07:59:50;;;;;;;1.30;1.10;;;18.50;63.80;;;;;;5149751;27;45173;-74
2023/04/19 08:02:17;;;;;;;1.25;1.00;;;18.50;63.70;;;;;;5092420;27;45365;-73
2023/04/19 08:04:47;;;;;;;1.23;1.13;;;18.50;63.60;;;;;;5111365;27;45397;-73
2023/04/19 08:07:13;;;;;;;1.73;1.27;;;18.50;63.40;;;;;;5034368;27;45358;-73
2023/04/19 08:09:40;;;;;;;1.95;1.20;;;18.50;63.40;;;;;;5077062;27;45294;-73
2023/04/19 08:12:07;;;;;;;1.25;1.10;;;18.50;63.40;;;;;;5043181;28;45547;-72
2023/04/19 08:14:34;;;;;;;1.95;1.17;;;18.50;63.30;;;;;;5043687;28;45363;-72
2023/04/19 08:17:03;;;;;;;1.20;1.10;;;18.50;63.50;;;;;;5043039;28;45239;-72
2023/04/19 08:19:30;;;;;;;1.30;1.20;;;18.50;63.60;;;;;;5034995;28;45450;-72
2023/04/19 08:21:57;;;;;;;1.67;1.10;;;18.50;63.60;;;;;;5043593;28;45196;-72
2023/04/19 08:24:24;;;;;;;1.70;1.20;;;18.50;63.60;;;;;;5042937;28;45363;-72
2023/04/19 08:26:53;;;;;;;1.15;1.05;;;18.50;63.30;;;;;;5042889;28;45205;-72
2023/04/19 08:29:20;;;;;;;2.28;1.30;;;18.60;63.20;;;;;;5043154;28;45358;-72
2023/04/19 08:31:47;;;;;;;1.50;1.20;;;18.60;63.20;;;;;;5042402;28;46384;-71
2023/04/19 08:34:15;;;;;;;2.55;1.27;;;18.60;63.10;;;;;;5042144;27;45565;-72
2023/04/19 08:36:44;;;;;;;2.85;1.50;;;18.60;63.00;;;;;;5033882;28;45249;-72
2023/04/19 08:39:12;;;;;;;1.63;1.35;;;18.60;62.90;;;;;;5042917;28;45141;-72
2023/04/19 08:41:40;;;;;;;3.97;1.50;;;18.60;62.80;;;;;;5042840;27;45802;-72
2023/04/19 08:44:07;;;;;;;1.60;1.20;;;18.60;62.80;;;;;;5042669;28;45292;-72
2023/04/19 08:46:34;;;;;;;2.03;1.27;;;18.60;62.60;;;;;;5078156;27;45287;-71
2023/04/19 08:49:01;;;;;;;1.63;1.30;;;18.60;62.60;;;;;;5043232;28;45207;-72
2023/04/19 08:51:31;;;;;;;2.17;1.40;;;18.60;62.40;;;;;;5042290;27;45366;-71
2023/04/19 08:53:59;;;;;;;2.22;1.13;;;18.60;62.30;;;;;;5042811;28;45441;-71
2023/04/19 08:56:27;;;;;;;1.80;1.45;;;18.60;62.20;;;;;;5056227;28;45220;-72
2023/04/19 08:58:54;;;;;;;2.58;1.25;;;18.60;62.20;;;;;;5043380;28;45287;-72
2023/04/19 09:01:20;;;;;;;1.45;1.00;;;18.60;62.30;;;;;;5072603;27;47254;-72
2023/04/19 09:03:47;;;;;;;2.13;1.35;;;18.60;62.10;;;;;;5041439;28;45339;-72
2023/04/19 09:06:14;;;;;;;2.30;1.40;;;18.60;61.90;;;;;;5042138;28;45396;-72
2023/04/19 09:08:42;;;;;;;2.00;1.42;;;18.60;61.70;;;;;;5042135;28;45198;-72
2023/04/19 09:11:09;;;;;;;2.38;1.25;;;18.60;61.50;;;;;;5042763;28;47587;-72
2023/04/19 09:13:39;;;;;;;1.90;1.30;;;18.60;61.50;;;;;;5073915;27;45409;-72
2023/04/19 09:16:07;;;;;;;2.05;1.05;;;18.60;61.50;;;;;;5042378;28;45297;-72
2023/04/19 09:18:34;;;;;;;2.08;1.10;;;18.60;61.20;;;;;;5042497;28;45288;-72
2023/04/19 09:21:01;;;;;;;2.08;1.30;;;18.60;61.20;;;;;;5042390;28;46322;-72
2023/04/19 09:23:28;;;;;;;2.28;1.20;;;18.60;61.40;;;;;;5039881;28;45333;-72
2023/04/19 09:25:59;;;;;;;2.60;1.48;;;18.50;61.00;;;;;;5035817;28;45323;-72
2023/04/19 09:28:26;;;;;;;1.27;1.17;;;18.60;60.80;;;;;;5076821;27;45346;-71
2023/04/19 09:30:55;;;;;;;1.55;1.17;;;18.60;61.30;;;;;;5041309;27;45476;-72
2023/04/19 09:33:40;;;;;;;1.25;1.00;;;18.60;61.20;;;;;;5039763;27;46220;-72
2023/04/19 09:36:08;;;;;;;1.35;1.02;;;18.60;61.40;;;;;;5037408;28;45378;-71
2023/04/19 09:38:47;;;;;;;2.00;1.30;;;18.50;61.10;;;;;;5042066;28;45469;-72
2023/04/19 09:41:16;;;;;;;1.42;1.13;;;18.50;62.10;;;;;;5040570;27;45259;-73
2023/04/19 09:43:42;;;;;;;0.95;0.85;;;18.50;61.00;;;;;;5036640;28;45216;-72
2023/04/19 09:46:09;;;;;;;0.80;0.80;;;18.50;62.20;;;;;;5035133;28;45212;-71
2023/04/19 09:48:36;;;;;;;1.35;1.20;;;18.50;61.30;;;;;;5044095;28;45591;-71
2023/04/19 09:51:03;;;;;;;2.45;1.30;;;18.50;61.50;;;;;;5041020;27;47704;-72
2023/04/19 09:53:32;;;;;;;1.20;1.00;;;18.50;61.40;;;;;;5072298;27;45359;-72
2023/04/19 09:56:00;;;;;;;1.35;1.10;;;18.50;61.20;;;;;;5040441;28;45370;-72
2023/04/19 09:58:28;;;;;;;2.17;1.00;;;18.50;61.30;;;;;;5040330;28;45470;-72
2023/04/19 10:00:56;;;;;;;2.22;0.88;;;18.50;61.50;;;;;;5040731;28;47443;-72
2023/04/19 10:03:26;;;;;;;1.15;1.00;;;18.50;61.50;;;;;;5039870;27;45366;-71
2023/04/19 10:05:53;;;;;;;1.50;1.17;;;18.50;61.50;;;;;;5036311;28;45383;-71
2023/04/19 10:08:20;;;;;;;1.25;0.93;;;18.50;60.90;;;;;;5046987;27;45291;-72
2023/04/19 10:10:48;;;;;;;1.60;1.08;;;18.50;60.80;;;;;;5072822;27;46696;-72
2023/04/19 10:13:21;;;;;;;1.35;0.85;;;18.60;60.80;;;;;;5042816;28;45374;-72
2023/04/19 10:15:49;;;;;;;1.50;1.00;;;18.60;61.00;;;;;;5043405;27;45381;-71
2023/04/19 10:18:17;;;;;;;1.90;1.17;;;18.50;61.00;;;;;;5051130;27;45707;-71
2023/04/19 10:20:51;;;;;;;1.17;0.73;;;18.60;60.80;;;;;;5048019;28;46687;-72
2023/04/19 10:23:19;;;;;;;1.35;0.93;;;18.50;60.70;;;;;;5077418;27;45305;-71
2023/04/19 10:25:47;;;;;;;1.48;0.98;;;18.60;60.60;;;;;;5077877;27;45378;-72
2023/04/19 10:28:15;;;;;;;1.25;1.00;;;18.50;60.50;;;;;;5042839;27;45335;-71
2023/04/19 10:30:55;;;;;;;1.33;1.00;;;18.50;60.00;;;;;;5042616;27;46568;-72
2023/04/19 10:33:26;;;;;;;1.30;0.90;;;18.50;60.00;;;;;;5053666;27;45272;-71
2023/04/19 10:35:56;;;;;;;1.80;1.15;;;18.50;59.60;;;;;;5041573;27;45466;-71
2023/04/19 10:38:37;;;;;;;1.10;1.00;;;18.60;59.80;;;;;;5039632;28;45237;-71
2023/04/19 10:41:10;;;;;;;1.42;0.90;;;18.60;59.60;;;;;;5040551;28;46606;-71
2023/04/19 10:43:38;;;;;;;1.77;0.98;;;18.60;59.60;;;;;;5042755;28;45398;-71
2023/04/19 10:46:09;;;;;;;1.00;0.82;;;18.60;59.40;;;;;;5035239;28;45331;-71
2023/04/19 10:48:38;;;;;;;1.00;0.77;;;18.60;59.30;;;;;;5035570;28;45205;-72
2023/04/19 10:51:14;;;;;;;1.08;0.88;;;18.60;59.40;;;;;;5051565;27;46466;-71
2023/04/19 10:53:45;;;;;;;1.08;0.63;;;18.60;59.50;;;;;;5039085;27;45834;-72
2023/04/19 10:56:13;;;;;;;1.45;0.88;;;18.60;59.50;;;;;;5058882;27;45595;-72
2023/04/19 10:59:20;;;;;;;1.00;0.70;;;18.60;58.50;;;;;;5071801;27;45445;-71
2023/04/19 11:01:50;;;;;;;1.08;0.88;;;18.60;58.30;;;;;;5041540;27;47999;-72
2023/04/19 11:04:19;;;;;;;1.20;0.88;;;18.60;58.60;;;;;;5067893;27;45453;-71
2023/04/19 11:07:01;;;;;;;1.10;0.70;;;18.60;58.50;;;;;;5048733;27;45394;-71
2023/04/19 11:09:29;;;;;;;0.95;0.95;;;18.60;58.50;;;;;;5066046;27;45289;-71
2023/04/19 11:12:00;;;;;;;0.98;0.82;;;18.60;58.50;;;;;;5037015;28;46822;-67
2023/04/19 11:14:31;;;;;;;3.80;0.65;;;18.60;58.00;;;;;;5057011;27;45491;-71
2023/04/19 11:16:59;;;;;;;6.10;1.02;;;18.60;59.60;;;;;;5081844;27;45344;-71
2023/04/19 11:19:26;;;;;;;1.52;0.90;;;18.60;59.60;;;;;;5045429;27;45513;-72
2023/04/19 11:21:58;;;;;;;1.45;0.55;;;18.50;58.50;;;;;;5040094;28;46249;-71
2023/04/19 11:24:25;;;;;;;2.08;0.88;;;18.50;58.40;;;;;;5039738;28;45481;-71
2023/04/19 11:26:52;;;;;;;2.70;0.90;;;18.50;58.80;;;;;;5037534;28;45554;-71
2023/04/19 11:29:20;;;;;;;1.67;0.80;;;18.50;59.60;;;;;;5062115;27;45502;-71
2023/04/19 11:31:47;;;;;;;4.93;1.27;;;18.50;59.70;;;;;;5072573;27;47098;-71
2023/04/19 11:34:15;;;;;;;1.35;0.80;;;18.50;60.60;;;;;;5065175;27;45346;-72
2023/04/19 11:36:50;;;;;;;1.00;0.80;;;18.50;59.90;;;;;;5047985;27;45213;-71
2023/04/19 11:39:16;;;;;;;3.10;0.70;;;18.50;60.30;;;;;;5043096;27;45368;-72
2023/04/19 11:41:43;;;;;;;3.10;0.95;;;18.40;60.00;;;;;;5046985;27;46485;-71
2023/04/19 11:44:14;;;;;;;2.92;0.93;;;18.40;60.40;;;;;;5036747;27;45459;-71
2023/04/19 11:46:41;;;;;;;1.67;0.80;;;18.40;60.50;;;;;;5040056;27;45269;-71
2023/04/19 11:49:08;;;;;;;1.05;0.75;;;18.40;60.50;;;;;;5029298;28;45381;-74
2023/04/19 11:51:42;;;;;;;1.27;0.57;;;18.40;60.80;;;;;;5040222;28;47671;-71
2023/04/19 11:54:15;;;;;;;2.65;0.80;;;18.30;60.70;;;;;;5036509;27;46341;-71
2023/04/19 11:56:57;;;;;;;1.58;0.88;;;18.30;60.80;;;;;;5035640;28;45288;-71
2023/04/19 11:59:24;;;;;;;1.08;0.70;;;18.30;60.80;;;;;;5040522;27;45443;-72
2023/04/19 12:01:51;;;;;;;0.95;0.70;;;18.30;60.50;;;;;;5029772;28;45269;-72
2023/04/19 12:04:19;;;;;;;0.82;0.70;;;18.30;60.50;;;;;;5037653;28;45527;-72
2023/04/19 12:06:56;;;;;;;3.42;0.80;;;18.30;60.80;;;;;;5040625;28;45366;-72
2023/04/19 12:09:23;;;;;;;1.83;0.75;;;18.30;61.50;;;;;;5037298;28;45272;-72
2023/04/19 12:11:51;;;;;;;2.90;0.70;;;18.30;62.20;;;;;;5034267;27;46098;-71
2023/04/19 12:14:20;;;;;;;3.85;0.85;;;18.30;62.20;;;;;;5037396;27;45596;-72
2023/04/19 12:17:06;;;;;;;1.83;0.90;;;18.30;62.90;;;;;;5035990;27;45430;-71
2023/04/19 12:19:36;;;;;;;1.13;0.70;;;18.30;62.30;;;;;;5034423;28;45651;-72
2023/04/19 12:22:15;;;;;;;0.80;0.80;;;18.30;62.70;;;;;;5047251;27;46449;-71
2023/04/19 12:24:42;;;;;;;1.40;0.60;;;18.30;63.20;;;;;;5034237;28;45307;-71
2023/04/19 12:27:10;;;;;;;1.73;0.80;;;18.30;63.10;;;;;;5050574;27;45289;-72
2023/04/19 12:29:37;;;;;;;0.75;0.60;;;18.30;62.90;;;;;;5070888;27;45328;-72
2023/04/19 12:32:04;;;;;;;0.70;0.70;;;18.30;62.20;;;;;;5071872;27;45508;-71
2023/04/19 12:34:31;;;;;;;0.98;0.70;;;18.30;61.70;;;;;;5045502;27;45494;-71
2023/04/19 12:36:58;;;;;;;0.93;0.80;;;18.30;61.80;;;;;;5056091;27;45522;-72
2023/04/19 12:39:27;;;;;;;0.77;0.75;;;18.30;61.20;;;;;;5047933;27;45404;-71
2023/04/19 12:41:54;;;;;;;0.82;0.47;;;18.30;61.30;;;;;;5039560;27;45303;-72
2023/04/19 12:44:21;;;;;;;1.27;0.63;;;18.30;61.90;;;;;;5062956;27;45339;-72
2023/04/19 12:46:47;;;;;;;1.20;0.77;;;18.30;61.20;;;;;;5040289;28;45394;-71
2023/04/19 12:49:14;;;;;;;0.75;0.68;;;18.30;62.10;;;;;;5032432;27;45493;-72
2023/04/19 12:51:42;;;;;;;1.30;0.70;;;18.40;61.40;;;;;;5042085;27;45387;-68